sensor_id;sensor_type;location;lat;lon;timestamp;P1;durP1;ratioP1;P2;durP2;ratioP2
54947;SDS011;41113;41.882;12.530;2023-06-10T00:02:10;12.88;;;6.63;;
54947;SDS011;41113;41.882;12.530;2023-06-10T00:04:35;13.10;;;6.32;;
54947;SDS011;41113;41.882;12.530;2023-06-10T00:07:02;12.55;;;6.25;;
54947;SDS011;41113;41.882;12.530;2023-06-10T00:09:34;12.32;;;6.63;;
54947;SDS011;41113;41.882;12.530;2023-06-10T00:12:01;13.23;;;6.43;;
54947;SDS011;41113;41.882;12.530;2023-06-10T00:14:27;14.23;;;6.63;;
54947;SDS011;41113;41.882;12.530;2023-06-10T00:16:52;14.77;;;7.00;;
54947;SDS011;41113;41.882;12.530;2023-06-10T00:19:18;14.38;;;6.93;;
54947;SDS011;41113;41.882;12.530;2023-06-10T00:21:43;13.98;;;7.22;;
54947;SDS011;41113;41.882;12.530;2023-06-10T00:24:10;15.27;;;7.32;;
54947;SDS011;41113;41.882;12.530;2023-06-10T00:26:37;13.68;;;7.55;;
54947;SDS011;41113;41.882;12.530;2023-06-10T00:29:03;15.63;;;7.43;;
54947;SDS011;41113;41.882;12.530;2023-06-10T00:31:28;18.67;;;8.88;;
54947;SDS011;41113;41.882;12.530;2023-06-10T00:33:55;17.55;;;8.38;;
54947;SDS011;41113;41.882;12.530;2023-06-10T00:36:20;16.45;;;9.00;;
54947;SDS011;41113;41.882;12.530;2023-06-10T00:38:45;17.55;;;9.40;;
54947;SDS011;41113;41.882;12.530;2023-06-10T00:41:11;19.27;;;9.45;;
54947;SDS011;41113;41.882;12.530;2023-06-10T00:43:36;14.82;;;8.23;;
54947;SDS011;41113;41.882;12.530;2023-06-10T00:46:02;16.92;;;8.38;;
54947;SDS011;41113;41.882;12.530;2023-06-10T00:48:27;16.30;;;8.75;;
54947;SDS011;41113;41.882;12.530;2023-06-10T00:50:53;15.07;;;8.98;;
54947;SDS011;41113;41.882;12.530;2023-06-10T00:53:19;16.90;;;9.80;;
54947;SDS011;41113;41.882;12.530;2023-06-10T00:55:46;16.48;;;9.77;;
54947;SDS011;41113;41.882;12.530;2023-06-10T00:58:11;21.45;;;10.52;;
54947;SDS011;41113;41.882;12.530;2023-06-10T01:00:37;16.73;;;10.60;;
54947;SDS011;41113;41.882;12.530;2023-06-10T01:03:03;20.65;;;10.48;;
54947;SDS011;41113;41.882;12.530;2023-06-10T01:05:33;18.63;;;10.30;;
54947;SDS011;41113;41.882;12.530;2023-06-10T01:10:51;17.38;;;10.60;;
54947;SDS011;41113;41.882;12.530;2023-06-10T01:13:20;18.63;;;10.60;;
54947;SDS011;41113;41.882;12.530;2023-06-10T01:15:49;17.75;;;10.63;;
54947;SDS011;41113;41.882;12.530;2023-06-10T01:18:16;16.85;;;10.07;;
54947;SDS011;41113;41.882;12.530;2023-06-10T01:20:42;19.67;;;9.80;;
54947;SDS011;41113;41.882;12.530;2023-06-10T01:23:09;17.85;;;9.70;;
54947;SDS011;41113;41.882;12.530;2023-06-10T01:25:37;15.88;;;9.25;;
54947;SDS011;41113;41.882;12.530;2023-06-10T01:28:12;16.15;;;8.90;;
54947;SDS011;41113;41.882;12.530;2023-06-10T01:33:17;18.67;;;9.63;;
54947;SDS011;41113;41.882;12.530;2023-06-10T01:35:47;19.52;;;10.25;;
54947;SDS011;41113;41.882;12.530;2023-06-10T01:38:13;19.25;;;10.45;;
54947;SDS011;41113;41.882;12.530;2023-06-10T01:40:39;20.48;;;10.30;;
54947;SDS011;41113;41.882;12.530;2023-06-10T01:43:06;17.27;;;9.77;;
54947;SDS011;41113;41.882;12.530;2023-06-10T01:45:31;20.95;;;9.98;;
54947;SDS011;41113;41.882;12.530;2023-06-10T01:47:56;17.33;;;10.07;;
54947;SDS011;41113;41.882;12.530;2023-06-10T01:50:22;14.73;;;8.70;;
54947;SDS011;41113;41.882;12.530;2023-06-10T01:52:47;17.13;;;9.15;;
54947;SDS011;41113;41.882;12.530;2023-06-10T01:55:12;18.65;;;10.18;;
54947;SDS011;41113;41.882;12.530;2023-06-10T01:57:38;17.00;;;9.13;;
54947;SDS011;41113;41.882;12.530;2023-06-10T02:00:03;20.88;;;10.50;;
54947;SDS011;41113;41.882;12.530;2023-06-10T02:02:29;20.17;;;10.80;;
54947;SDS011;41113;41.882;12.530;2023-06-10T02:04:54;18.50;;;10.80;;
54947;SDS011;41113;41.882;12.530;2023-06-10T02:07:20;18.30;;;11.70;;
54947;SDS011;41113;41.882;12.530;2023-06-10T02:09:45;22.23;;;11.95;;
54947;SDS011;41113;41.882;12.530;2023-06-10T02:12:10;20.80;;;12.65;;
54947;SDS011;41113;41.882;12.530;2023-06-10T02:14:36;19.98;;;11.05;;
54947;SDS011;41113;41.882;12.530;2023-06-10T02:17:01;18.15;;;11.15;;
54947;SDS011;41113;41.882;12.530;2023-06-10T02:19:27;21.58;;;11.88;;
54947;SDS011;41113;41.882;12.530;2023-06-10T02:21:53;19.50;;;11.77;;
54947;SDS011;41113;41.882;12.530;2023-06-10T02:24:18;20.85;;;12.25;;
54947;SDS011;41113;41.882;12.530;2023-06-10T02:26:43;20.15;;;11.15;;
54947;SDS011;41113;41.882;12.530;2023-06-10T02:29:10;20.20;;;11.63;;
54947;SDS011;41113;41.882;12.530;2023-06-10T02:31:35;22.92;;;11.15;;
54947;SDS011;41113;41.882;12.530;2023-06-10T02:34:02;19.55;;;10.52;;
54947;SDS011;41113;41.882;12.530;2023-06-10T02:36:28;17.80;;;9.30;;
54947;SDS011;41113;41.882;12.530;2023-06-10T02:38:54;14.55;;;8.48;;
54947;SDS011;41113;41.882;12.530;2023-06-10T02:41:19;14.18;;;8.43;;
54947;SDS011;41113;41.882;12.530;2023-06-10T02:43:46;14.95;;;7.93;;
54947;SDS011;41113;41.882;12.530;2023-06-10T02:46:12;17.90;;;9.13;;
54947;SDS011;41113;41.882;12.530;2023-06-10T02:48:41;16.90;;;8.43;;
54947;SDS011;41113;41.882;12.530;2023-06-10T02:51:08;17.02;;;8.50;;
54947;SDS011;41113;41.882;12.530;2023-06-10T02:53:33;16.83;;;9.40;;
54947;SDS011;41113;41.882;12.530;2023-06-10T02:55:59;16.95;;;8.60;;
54947;SDS011;41113;41.882;12.530;2023-06-10T02:58:24;16.92;;;9.98;;
54947;SDS011;41113;41.882;12.530;2023-06-10T03:00:51;16.67;;;10.40;;
54947;SDS011;41113;41.882;12.530;2023-06-10T03:03:16;19.00;;;11.32;;
54947;SDS011;41113;41.882;12.530;2023-06-10T03:05:41;18.25;;;11.27;;
54947;SDS011;41113;41.882;12.530;2023-06-10T03:08:07;19.40;;;10.85;;
54947;SDS011;41113;41.882;12.530;2023-06-10T03:10:32;19.80;;;11.10;;
54947;SDS011;41113;41.882;12.530;2023-06-10T03:12:58;18.23;;;10.43;;
54947;SDS011;41113;41.882;12.530;2023-06-10T03:15:23;18.00;;;10.65;;
54947;SDS011;41113;41.882;12.530;2023-06-10T03:17:49;21.45;;;12.23;;
54947;SDS011;41113;41.882;12.530;2023-06-10T03:20:15;19.10;;;11.65;;
54947;SDS011;41113;41.882;12.530;2023-06-10T03:22:41;18.05;;;10.48;;
54947;SDS011;41113;41.882;12.530;2023-06-10T03:25:07;16.90;;;11.15;;
54947;SDS011;41113;41.882;12.530;2023-06-10T03:27:39;16.20;;;9.77;;
54947;SDS011;41113;41.882;12.530;2023-06-10T03:30:05;19.27;;;9.75;;
54947;SDS011;41113;41.882;12.530;2023-06-10T03:32:31;17.30;;;9.93;;
54947;SDS011;41113;41.882;12.530;2023-06-10T03:34:56;18.08;;;8.98;;
54947;SDS011;41113;41.882;12.530;2023-06-10T03:37:21;17.17;;;9.63;;
54947;SDS011;41113;41.882;12.530;2023-06-10T03:39:47;17.45;;;9.10;;
54947;SDS011;41113;41.882;12.530;2023-06-10T03:42:12;17.85;;;10.00;;
54947;SDS011;41113;41.882;12.530;2023-06-10T03:44:37;16.90;;;10.27;;
54947;SDS011;41113;41.882;12.530;2023-06-10T03:47:03;18.23;;;9.63;;
54947;SDS011;41113;41.882;12.530;2023-06-10T03:49:28;16.23;;;8.93;;
54947;SDS011;41113;41.882;12.530;2023-06-10T03:51:54;15.43;;;8.82;;
54947;SDS011;41113;41.882;12.530;2023-06-10T03:54:20;16.02;;;8.77;;
54947;SDS011;41113;41.882;12.530;2023-06-10T03:56:45;16.10;;;8.70;;
54947;SDS011;41113;41.882;12.530;2023-06-10T03:59:13;17.33;;;9.57;;
54947;SDS011;41113;41.882;12.530;2023-06-10T04:01:38;14.70;;;9.00;;
54947;SDS011;41113;41.882;12.530;2023-06-10T04:04:06;19.27;;;10.23;;
54947;SDS011;41113;41.882;12.530;2023-06-10T04:06:31;14.70;;;10.18;;
54947;SDS011;41113;41.882;12.530;2023-06-10T04:08:57;20.15;;;11.13;;
54947;SDS011;41113;41.882;12.530;2023-06-10T04:11:23;17.33;;;9.85;;
54947;SDS011;41113;41.882;12.530;2023-06-10T04:13:49;17.30;;;9.50;;
54947;SDS011;41113;41.882;12.530;2023-06-10T04:16:15;19.20;;;10.63;;
54947;SDS011;41113;41.882;12.530;2023-06-10T04:18:41;21.70;;;11.13;;
54947;SDS011;41113;41.882;12.530;2023-06-10T04:21:07;23.45;;;12.98;;
54947;SDS011;41113;41.882;12.530;2023-06-10T04:23:32;20.27;;;11.85;;
54947;SDS011;41113;41.882;12.530;2023-06-10T04:25:57;18.55;;;11.35;;
54947;SDS011;41113;41.882;12.530;2023-06-10T04:28:24;17.60;;;10.90;;
54947;SDS011;41113;41.882;12.530;2023-06-10T04:30:50;20.27;;;11.32;;
54947;SDS011;41113;41.882;12.530;2023-06-10T04:33:15;19.35;;;10.63;;
54947;SDS011;41113;41.882;12.530;2023-06-10T04:35:41;22.98;;;13.57;;
54947;SDS011;41113;41.882;12.530;2023-06-10T04:38:07;24.70;;;13.98;;
54947;SDS011;41113;41.882;12.530;2023-06-10T04:40:32;18.20;;;11.32;;
54947;SDS011;41113;41.882;12.530;2023-06-10T04:42:58;21.55;;;11.95;;
54947;SDS011;41113;41.882;12.530;2023-06-10T04:45:23;17.58;;;10.40;;
54947;SDS011;41113;41.882;12.530;2023-06-10T04:47:48;18.88;;;10.27;;
54947;SDS011;41113;41.882;12.530;2023-06-10T04:50:14;18.85;;;10.20;;
54947;SDS011;41113;41.882;12.530;2023-06-10T04:52:40;19.48;;;9.88;;
54947;SDS011;41113;41.882;12.530;2023-06-10T04:55:06;19.30;;;9.00;;
54947;SDS011;41113;41.882;12.530;2023-06-10T04:57:32;16.42;;;9.35;;
54947;SDS011;41113;41.882;12.530;2023-06-10T04:59:57;16.38;;;9.30;;
54947;SDS011;41113;41.882;12.530;2023-06-10T05:02:23;18.75;;;9.55;;
54947;SDS011;41113;41.882;12.530;2023-06-10T05:04:48;16.73;;;9.50;;
54947;SDS011;41113;41.882;12.530;2023-06-10T05:07:13;23.50;;;9.88;;
54947;SDS011;41113;41.882;12.530;2023-06-10T05:09:39;19.67;;;9.63;;
54947;SDS011;41113;41.882;12.530;2023-06-10T05:12:04;16.85;;;10.02;;
54947;SDS011;41113;41.882;12.530;2023-06-10T05:14:30;16.27;;;10.13;;
54947;SDS011;41113;41.882;12.530;2023-06-10T05:16:56;16.17;;;9.07;;
54947;SDS011;41113;41.882;12.530;2023-06-10T05:19:22;14.30;;;8.10;;
54947;SDS011;41113;41.882;12.530;2023-06-10T05:21:47;15.45;;;7.78;;
54947;SDS011;41113;41.882;12.530;2023-06-10T05:24:13;15.60;;;7.72;;
54947;SDS011;41113;41.882;12.530;2023-06-10T05:26:38;16.48;;;7.68;;
54947;SDS011;41113;41.882;12.530;2023-06-10T05:29:04;15.73;;;7.47;;
54947;SDS011;41113;41.882;12.530;2023-06-10T05:31:30;15.88;;;8.13;;
54947;SDS011;41113;41.882;12.530;2023-06-10T05:33:56;15.55;;;8.35;;
54947;SDS011;41113;41.882;12.530;2023-06-10T05:36:21;17.08;;;9.70;;
54947;SDS011;41113;41.882;12.530;2023-06-10T05:38:47;17.33;;;7.95;;
54947;SDS011;41113;41.882;12.530;2023-06-10T05:41:12;16.23;;;8.25;;
54947;SDS011;41113;41.882;12.530;2023-06-10T05:43:37;14.70;;;6.97;;
54947;SDS011;41113;41.882;12.530;2023-06-10T05:46:03;14.25;;;7.53;;
54947;SDS011;41113;41.882;12.530;2023-06-10T05:48:28;12.82;;;5.88;;
54947;SDS011;41113;41.882;12.530;2023-06-10T05:50:53;11.85;;;6.40;;
54947;SDS011;41113;41.882;12.530;2023-06-10T05:53:19;12.07;;;5.78;;
54947;SDS011;41113;41.882;12.530;2023-06-10T05:55:44;13.43;;;6.05;;
54947;SDS011;41113;41.882;12.530;2023-06-10T05:58:10;14.57;;;6.20;;
54947;SDS011;41113;41.882;12.530;2023-06-10T06:00:37;16.35;;;6.90;;
54947;SDS011;41113;41.882;12.530;2023-06-10T06:03:09;11.90;;;5.97;;
54947;SDS011;41113;41.882;12.530;2023-06-10T06:05:35;15.40;;;6.50;;
54947;SDS011;41113;41.882;12.530;2023-06-10T06:08:02;12.00;;;5.30;;
54947;SDS011;41113;41.882;12.530;2023-06-10T06:10:28;10.48;;;4.85;;
54947;SDS011;41113;41.882;12.530;2023-06-10T06:12:53;12.02;;;5.20;;
54947;SDS011;41113;41.882;12.530;2023-06-10T06:15:19;14.18;;;5.25;;
54947;SDS011;41113;41.882;12.530;2023-06-10T06:17:44;13.80;;;5.32;;
54947;SDS011;41113;41.882;12.530;2023-06-10T06:20:10;11.93;;;4.30;;
54947;SDS011;41113;41.882;12.530;2023-06-10T06:22:35;13.27;;;4.63;;
54947;SDS011;41113;41.882;12.530;2023-06-10T06:25:01;9.85;;;4.10;;
54947;SDS011;41113;41.882;12.530;2023-06-10T06:27:26;13.57;;;5.00;;
54947;SDS011;41113;41.882;12.530;2023-06-10T06:29:51;12.75;;;4.50;;
54947;SDS011;41113;41.882;12.530;2023-06-10T06:32:17;9.27;;;3.97;;
54947;SDS011;41113;41.882;12.530;2023-06-10T06:34:42;10.95;;;4.60;;
54947;SDS011;41113;41.882;12.530;2023-06-10T06:37:10;13.45;;;4.53;;
54947;SDS011;41113;41.882;12.530;2023-06-10T06:39:36;10.20;;;4.50;;
54947;SDS011;41113;41.882;12.530;2023-06-10T06:42:01;11.55;;;4.63;;
54947;SDS011;41113;41.882;12.530;2023-06-10T06:44:26;10.35;;;4.03;;
54947;SDS011;41113;41.882;12.530;2023-06-10T06:46:52;10.35;;;3.90;;
54947;SDS011;41113;41.882;12.530;2023-06-10T06:49:17;12.15;;;4.68;;
54947;SDS011;41113;41.882;12.530;2023-06-10T06:51:42;13.90;;;4.80;;
54947;SDS011;41113;41.882;12.530;2023-06-10T06:54:08;14.77;;;4.93;;
54947;SDS011;41113;41.882;12.530;2023-06-10T06:56:33;9.40;;;4.07;;
54947;SDS011;41113;41.882;12.530;2023-06-10T06:58:58;10.85;;;4.05;;
54947;SDS011;41113;41.882;12.530;2023-06-10T07:01:24;10.50;;;4.65;;
54947;SDS011;41113;41.882;12.530;2023-06-10T07:03:49;11.40;;;4.55;;
54947;SDS011;41113;41.882;12.530;2023-06-10T07:06:14;11.32;;;4.13;;
54947;SDS011;41113;41.882;12.530;2023-06-10T07:08:40;11.23;;;3.97;;
54947;SDS011;41113;41.882;12.530;2023-06-10T07:11:05;11.32;;;4.47;;
54947;SDS011;41113;41.882;12.530;2023-06-10T07:13:30;9.18;;;4.07;;
54947;SDS011;41113;41.882;12.530;2023-06-10T07:15:57;11.02;;;4.22;;
54947;SDS011;41113;41.882;12.530;2023-06-10T07:18:23;13.40;;;4.70;;
54947;SDS011;41113;41.882;12.530;2023-06-10T07:20:48;10.55;;;4.20;;
54947;SDS011;41113;41.882;12.530;2023-06-10T07:23:13;11.20;;;4.60;;
54947;SDS011;41113;41.882;12.530;2023-06-10T07:25:40;10.88;;;4.78;;
54947;SDS011;41113;41.882;12.530;2023-06-10T07:28:06;9.40;;;4.20;;
54947;SDS011;41113;41.882;12.530;2023-06-10T07:30:31;13.02;;;4.60;;
54947;SDS011;41113;41.882;12.530;2023-06-10T07:32:57;15.25;;;4.60;;
54947;SDS011;41113;41.882;12.530;2023-06-10T07:35:23;12.07;;;4.90;;
54947;SDS011;41113;41.882;12.530;2023-06-10T07:37:48;12.95;;;4.97;;
54947;SDS011;41113;41.882;12.530;2023-06-10T07:40:14;12.65;;;5.10;;
54947;SDS011;41113;41.882;12.530;2023-06-10T07:42:39;10.27;;;4.47;;
54947;SDS011;41113;41.882;12.530;2023-06-10T07:45:05;14.25;;;4.95;;
54947;SDS011;41113;41.882;12.530;2023-06-10T07:47:32;10.80;;;4.25;;
54947;SDS011;41113;41.882;12.530;2023-06-10T07:49:58;16.02;;;5.43;;
54947;SDS011;41113;41.882;12.530;2023-06-10T07:52:24;12.48;;;5.18;;
54947;SDS011;41113;41.882;12.530;2023-06-10T07:54:50;11.05;;;4.50;;
54947;SDS011;41113;41.882;12.530;2023-06-10T07:57:16;12.25;;;5.10;;
54947;SDS011;41113;41.882;12.530;2023-06-10T07:59:41;12.90;;;5.43;;
54947;SDS011;41113;41.882;12.530;2023-06-10T08:02:09;14.65;;;5.07;;
54947;SDS011;41113;41.882;12.530;2023-06-10T08:04:34;11.70;;;5.00;;
54947;SDS011;41113;41.882;12.530;2023-06-10T08:07:00;11.00;;;4.60;;
54947;SDS011;41113;41.882;12.530;2023-06-10T08:09:25;13.63;;;4.10;;
54947;SDS011;41113;41.882;12.530;2023-06-10T08:11:51;9.10;;;3.83;;
54947;SDS011;41113;41.882;12.530;2023-06-10T08:14:16;10.98;;;4.35;;
54947;SDS011;41113;41.882;12.530;2023-06-10T08:16:42;15.43;;;4.75;;
54947;SDS011;41113;41.882;12.530;2023-06-10T08:19:08;11.32;;;4.03;;
54947;SDS011;41113;41.882;12.530;2023-06-10T08:21:34;10.52;;;4.22;;
54947;SDS011;41113;41.882;12.530;2023-06-10T08:24:01;15.00;;;3.92;;
54947;SDS011;41113;41.882;12.530;2023-06-10T08:26:27;11.05;;;4.30;;
54947;SDS011;41113;41.882;12.530;2023-06-10T08:28:52;10.20;;;4.15;;
54947;SDS011;41113;41.882;12.530;2023-06-10T08:31:22;10.60;;;3.53;;
54947;SDS011;41113;41.882;12.530;2023-06-10T08:33:47;9.30;;;3.78;;
54947;SDS011;41113;41.882;12.530;2023-06-10T08:36:12;10.55;;;3.60;;
54947;SDS011;41113;41.882;12.530;2023-06-10T08:38:38;8.98;;;3.08;;
54947;SDS011;41113;41.882;12.530;2023-06-10T08:41:04;10.27;;;3.60;;
54947;SDS011;41113;41.882;12.530;2023-06-10T08:43:33;10.27;;;3.88;;
54947;SDS011;41113;41.882;12.530;2023-06-10T08:46:04;8.82;;;3.53;;
54947;SDS011;41113;41.882;12.530;2023-06-10T08:48:33;11.65;;;4.10;;
54947;SDS011;41113;41.882;12.530;2023-06-10T08:51:00;10.20;;;3.70;;
54947;SDS011;41113;41.882;12.530;2023-06-10T08:53:30;9.98;;;3.55;;
54947;SDS011;41113;41.882;12.530;2023-06-10T08:55:59;9.50;;;3.60;;
54947;SDS011;41113;41.882;12.530;2023-06-10T08:58:27;8.77;;;3.28;;
54947;SDS011;41113;41.882;12.530;2023-06-10T09:00:53;8.45;;;3.35;;
54947;SDS011;41113;41.882;12.530;2023-06-10T09:03:19;11.88;;;3.80;;
54947;SDS011;41113;41.882;12.530;2023-06-10T09:05:46;11.48;;;3.72;;
54947;SDS011;41113;41.882;12.530;2023-06-10T09:08:13;10.05;;;3.22;;
54947;SDS011;41113;41.882;12.530;2023-06-10T09:10:40;10.07;;;3.40;;
54947;SDS011;41113;41.882;12.530;2023-06-10T09:13:06;10.68;;;4.05;;
54947;SDS011;41113;41.882;12.530;2023-06-10T09:15:31;9.15;;;3.10;;
54947;SDS011;41113;41.882;12.530;2023-06-10T09:17:58;8.90;;;3.22;;
54947;SDS011;41113;41.882;12.530;2023-06-10T09:20:26;8.98;;;3.10;;
54947;SDS011;41113;41.882;12.530;2023-06-10T09:22:51;8.50;;;3.00;;
54947;SDS011;41113;41.882;12.530;2023-06-10T09:25:17;12.32;;;3.25;;
54947;SDS011;41113;41.882;12.530;2023-06-10T09:27:46;9.45;;;3.15;;
54947;SDS011;41113;41.882;12.530;2023-06-10T09:30:33;9.57;;;3.08;;
54947;SDS011;41113;41.882;12.530;2023-06-10T09:33:00;9.50;;;3.40;;
54947;SDS011;41113;41.882;12.530;2023-06-10T09:35:28;9.07;;;3.08;;
54947;SDS011;41113;41.882;12.530;2023-06-10T09:37:56;7.38;;;2.85;;
54947;SDS011;41113;41.882;12.530;2023-06-10T09:40:25;10.85;;;3.42;;
54947;SDS011;41113;41.882;12.530;2023-06-10T09:42:55;11.65;;;3.50;;
54947;SDS011;41113;41.882;12.530;2023-06-10T09:45:22;9.43;;;3.30;;
54947;SDS011;41113;41.882;12.530;2023-06-10T09:47:51;11.88;;;3.75;;
54947;SDS011;41113;41.882;12.530;2023-06-10T09:50:18;9.50;;;3.83;;
54947;SDS011;41113;41.882;12.530;2023-06-10T09:52:45;9.25;;;3.22;;
54947;SDS011;41113;41.882;12.530;2023-06-10T09:55:11;11.98;;;3.38;;
54947;SDS011;41113;41.882;12.530;2023-06-10T09:57:36;11.55;;;3.50;;
54947;SDS011;41113;41.882;12.530;2023-06-10T10:00:05;10.93;;;3.60;;
54947;SDS011;41113;41.882;12.530;2023-06-10T10:02:32;10.90;;;3.80;;
54947;SDS011;41113;41.882;12.530;2023-06-10T10:05:08;10.65;;;3.55;;
54947;SDS011;41113;41.882;12.530;2023-06-10T10:07:33;14.43;;;4.20;;
54947;SDS011;41113;41.882;12.530;2023-06-10T10:09:59;12.40;;;4.07;;
54947;SDS011;41113;41.882;12.530;2023-06-10T10:12:25;12.73;;;3.85;;
54947;SDS011;41113;41.882;12.530;2023-06-10T10:14:51;10.60;;;3.67;;
54947;SDS011;41113;41.882;12.530;2023-06-10T10:17:17;11.25;;;3.53;;
54947;SDS011;41113;41.882;12.530;2023-06-10T10:19:48;11.45;;;3.53;;
54947;SDS011;41113;41.882;12.530;2023-06-10T10:22:26;10.75;;;3.58;;
54947;SDS011;41113;41.882;12.530;2023-06-10T10:24:59;11.45;;;3.65;;
54947;SDS011;41113;41.882;12.530;2023-06-10T10:27:28;12.35;;;3.40;;
54947;SDS011;41113;41.882;12.530;2023-06-10T10:29:58;11.55;;;4.00;;
54947;SDS011;41113;41.882;12.530;2023-06-10T10:35:21;11.40;;;3.97;;
54947;SDS011;41113;41.882;12.530;2023-06-10T10:37:48;11.35;;;3.75;;
54947;SDS011;41113;41.882;12.530;2023-06-10T10:40:17;10.70;;;4.03;;
54947;SDS011;41113;41.882;12.530;2023-06-10T10:42:45;11.98;;;4.28;;
54947;SDS011;41113;41.882;12.530;2023-06-10T10:45:13;14.27;;;4.87;;
54947;SDS011;41113;41.882;12.530;2023-06-10T10:47:39;13.77;;;4.30;;
54947;SDS011;41113;41.882;12.530;2023-06-10T10:50:15;11.15;;;3.97;;
54947;SDS011;41113;41.882;12.530;2023-06-10T10:53:02;13.57;;;4.32;;
54947;SDS011;41113;41.882;12.530;2023-06-10T10:55:28;14.05;;;4.30;;
54947;SDS011;41113;41.882;12.530;2023-06-10T11:00:43;11.27;;;4.20;;
54947;SDS011;41113;41.882;12.530;2023-06-10T11:03:12;13.50;;;4.25;;
54947;SDS011;41113;41.882;12.530;2023-06-10T11:05:39;13.05;;;4.82;;
54947;SDS011;41113;41.882;12.530;2023-06-10T11:08:06;14.45;;;4.30;;
54947;SDS011;41113;41.882;12.530;2023-06-10T11:10:51;13.35;;;4.38;;
54947;SDS011;41113;41.882;12.530;2023-06-10T11:13:20;12.18;;;3.85;;
54947;SDS011;41113;41.882;12.530;2023-06-10T11:15:47;14.35;;;5.10;;
54947;SDS011;41113;41.882;12.530;2023-06-10T11:20:57;13.50;;;4.38;;
54947;SDS011;41113;41.882;12.530;2023-06-10T11:26:11;14.65;;;4.57;;
54947;SDS011;41113;41.882;12.530;2023-06-10T11:34:24;13.40;;;4.00;;
54947;SDS011;41113;41.882;12.530;2023-06-10T11:36:51;14.57;;;4.17;;
54947;SDS011;41113;41.882;12.530;2023-06-10T11:39:18;10.75;;;3.70;;
54947;SDS011;41113;41.882;12.530;2023-06-10T11:41:48;10.82;;;3.65;;
54947;SDS011;41113;41.882;12.530;2023-06-10T11:44:15;11.30;;;3.50;;
54947;SDS011;41113;41.882;12.530;2023-06-10T11:46:41;13.60;;;4.32;;
54947;SDS011;41113;41.882;12.530;2023-06-10T11:49:09;15.68;;;4.57;;
54947;SDS011;41113;41.882;12.530;2023-06-10T11:51:37;14.38;;;4.88;;
54947;SDS011;41113;41.882;12.530;2023-06-10T11:56:56;11.43;;;4.53;;
54947;SDS011;41113;41.882;12.530;2023-06-10T12:06:52;9.15;;;3.70;;
54947;SDS011;41113;41.882;12.530;2023-06-10T12:16:27;12.65;;;4.22;;
54947;SDS011;41113;41.882;12.530;2023-06-10T12:30:26;11.05;;;4.03;;
54947;SDS011;41113;41.882;12.530;2023-06-10T12:32:52;13.18;;;4.03;;
54947;SDS011;41113;41.882;12.530;2023-06-10T12:35:29;11.65;;;3.70;;
54947;SDS011;41113;41.882;12.530;2023-06-10T12:37:55;11.68;;;4.00;;
54947;SDS011;41113;41.882;12.530;2023-06-10T12:41:18;10.90;;;4.20;;
54947;SDS011;41113;41.882;12.530;2023-06-10T13:40:38;12.93;;;4.10;;
54947;SDS011;41113;41.882;12.530;2023-06-10T13:43:06;12.68;;;3.47;;
54947;SDS011;41113;41.882;12.530;2023-06-10T13:45:31;12.18;;;3.75;;
54947;SDS011;41113;41.882;12.530;2023-06-10T13:47:57;8.70;;;3.35;;
54947;SDS011;41113;41.882;12.530;2023-06-10T13:50:22;11.68;;;4.47;;
54947;SDS011;41113;41.882;12.530;2023-06-10T13:52:47;10.52;;;3.83;;
54947;SDS011;41113;41.882;12.530;2023-06-10T13:55:13;10.43;;;3.85;;
54947;SDS011;41113;41.882;12.530;2023-06-10T13:57:40;10.00;;;4.22;;
54947;SDS011;41113;41.882;12.530;2023-06-10T14:00:06;8.90;;;3.80;;
54947;SDS011;41113;41.882;12.530;2023-06-10T14:02:34;11.27;;;4.03;;
54947;SDS011;41113;41.882;12.530;2023-06-10T14:05:50;11.48;;;3.80;;
54947;SDS011;41113;41.882;12.530;2023-06-10T14:08:16;10.75;;;3.70;;
54947;SDS011;41113;41.882;12.530;2023-06-10T14:10:42;10.30;;;4.18;;
54947;SDS011;41113;41.882;12.530;2023-06-10T14:13:07;12.38;;;4.22;;
54947;SDS011;41113;41.882;12.530;2023-06-10T14:15:33;10.55;;;4.00;;
54947;SDS011;41113;41.882;12.530;2023-06-10T14:17:58;11.18;;;4.10;;
54947;SDS011;41113;41.882;12.530;2023-06-10T14:20:25;22.27;;;12.95;;
54947;SDS011;41113;41.882;12.530;2023-06-10T14:22:51;16.20;;;7.93;;
54947;SDS011;41113;41.882;12.530;2023-06-10T14:25:17;35.65;;;21.00;;
54947;SDS011;41113;41.882;12.530;2023-06-10T14:27:42;15.70;;;7.63;;
54947;SDS011;41113;41.882;12.530;2023-06-10T14:30:08;41.33;;;24.90;;
54947;SDS011;41113;41.882;12.530;2023-06-10T14:32:33;22.20;;;12.55;;
54947;SDS011;41113;41.882;12.530;2023-06-10T14:34:59;24.35;;;13.32;;
54947;SDS011;41113;41.882;12.530;2023-06-10T14:37:24;29.33;;;16.85;;
54947;SDS011;41113;41.882;12.530;2023-06-10T14:39:49;16.77;;;7.15;;
54947;SDS011;41113;41.882;12.530;2023-06-10T14:42:15;18.42;;;7.78;;
54947;SDS011;41113;41.882;12.530;2023-06-10T14:44:40;15.90;;;7.93;;
54947;SDS011;41113;41.882;12.530;2023-06-10T14:47:05;16.17;;;8.77;;
54947;SDS011;41113;41.882;12.530;2023-06-10T14:49:31;17.63;;;7.20;;
54947;SDS011;41113;41.882;12.530;2023-06-10T14:51:56;23.30;;;11.95;;
54947;SDS011;41113;41.882;12.530;2023-06-10T14:54:21;13.98;;;6.40;;
54947;SDS011;41113;41.882;12.530;2023-06-10T14:56:47;17.85;;;10.10;;
54947;SDS011;41113;41.882;12.530;2023-06-10T14:59:12;185.65;;;108.30;;
54947;SDS011;41113;41.882;12.530;2023-06-10T15:01:38;324.52;;;150.45;;
54947;SDS011;41113;41.882;12.530;2023-06-10T15:04:03;133.43;;;74.97;;
54947;SDS011;41113;41.882;12.530;2023-06-10T15:06:29;76.50;;;41.15;;
54947;SDS011;41113;41.882;12.530;2023-06-10T15:08:54;122.90;;;70.18;;
54947;SDS011;41113;41.882;12.530;2023-06-10T15:11:20;68.45;;;37.25;;
54947;SDS011;41113;41.882;12.530;2023-06-10T15:13:46;80.80;;;45.25;;
54947;SDS011;41113;41.882;12.530;2023-06-10T15:16:11;46.00;;;25.98;;
54947;SDS011;41113;41.882;12.530;2023-06-10T15:18:37;49.72;;;30.45;;
54947;SDS011;41113;41.882;12.530;2023-06-10T15:21:03;67.90;;;47.10;;
54947;SDS011;41113;41.882;12.530;2023-06-10T15:23:28;72.63;;;58.17;;
54947;SDS011;41113;41.882;12.530;2023-06-10T15:25:53;37.08;;;25.02;;
54947;SDS011;41113;41.882;12.530;2023-06-10T15:28:19;32.40;;;19.85;;
54947;SDS011;41113;41.882;12.530;2023-06-10T15:30:44;69.75;;;45.40;;
54947;SDS011;41113;41.882;12.530;2023-06-10T15:33:10;97.18;;;55.97;;
54947;SDS011;41113;41.882;12.530;2023-06-10T15:35:35;96.57;;;53.30;;
54947;SDS011;41113;41.882;12.530;2023-06-10T15:38:02;82.30;;;46.25;;
54947;SDS011;41113;41.882;12.530;2023-06-10T15:40:27;71.90;;;41.65;;
54947;SDS011;41113;41.882;12.530;2023-06-10T15:42:54;51.72;;;29.00;;
54947;SDS011;41113;41.882;12.530;2023-06-10T15:45:19;34.75;;;19.30;;
54947;SDS011;41113;41.882;12.530;2023-06-10T15:47:46;30.52;;;17.00;;
54947;SDS011;41113;41.882;12.530;2023-06-10T15:50:11;23.42;;;13.73;;
54947;SDS011;41113;41.882;12.530;2023-06-10T15:52:36;21.50;;;10.90;;
54947;SDS011;41113;41.882;12.530;2023-06-10T15:55:02;29.17;;;13.13;;
54947;SDS011;41113;41.882;12.530;2023-06-10T15:57:27;17.95;;;8.68;;
54947;SDS011;41113;41.882;12.530;2023-06-10T15:59:53;17.38;;;8.38;;
54947;SDS011;41113;41.882;12.530;2023-06-10T16:02:18;14.32;;;6.85;;
54947;SDS011;41113;41.882;12.530;2023-06-10T16:04:44;83.82;;;57.83;;